Time;durP1;ratioP1;P1;durP2;ratioP2;P2;SDS_P1;SDS_P2;PMS_P1;PMS_P2;Temp;Humidity;BMP_temperature;BMP_pressure;BME280_temperature;BME280_humidity;BME280_pressure;Samples;Min_cycle;Max_cycle;Signal;HPM_P1;HPM_P2
2022/09/07 00:00:37;;;;;;;12.13;9.52;;;;;;;16.24;100.00;101147.66;5218440;28;20033;-76
2022/09/07 00:03:08;;;;;;;11.27;8.60;;;;;;;16.15;100.00;101157.50;5219474;28;20033;-76
2022/09/07 00:05:41;;;;;;;10.52;7.65;;;;;;;16.07;100.00;101154.69;5221641;28;20033;-76
2022/09/07 00:08:15;;;;;;;7.55;6.68;;;;;;;16.03;100.00;101147.88;5224964;28;20024;-76
2022/09/07 00:10:55;;;;;;;8.15;6.90;;;;;;;15.95;100.00;101127.06;5231373;28;20123;-75
2022/09/07 00:13:32;;;;;;;7.65;6.50;;;;;;;15.88;100.00;101134.91;5241185;28;20037;-76
2022/09/07 00:16:09;;;;;;;7.57;5.90;;;;;;;15.88;100.00;101123.28;5230741;28;20049;-75
2022/09/07 00:18:41;;;;;;;9.95;6.55;;;;;;;15.84;100.00;101116.50;5223355;28;20037;-75
2022/09/07 00:21:15;;;;;;;8.68;6.75;;;;;;;15.72;100.00;101117.63;5223285;28;20037;-75
2022/09/07 00:23:48;;;;;;;10.35;6.80;;;;;;;15.71;100.00;101116.78;5224928;28;20561;-75
2022/09/07 00:26:22;;;;;;;9.70;6.95;;;;;;;15.60;100.00;101112.38;5228911;28;20029;-75
2022/09/07 00:28:57;;;;;;;12.18;7.13;;;;;;;15.59;100.00;101125.97;5228793;28;20474;-75
2022/09/07 00:31:30;;;;;;;10.68;7.60;;;;;;;15.56;100.00;101115.53;5230527;28;20186;-75
2022/09/07 00:34:01;;;;;;;13.13;8.70;;;;;;;15.52;100.00;101114.97;5231023;28;20033;-75
2022/09/07 00:36:32;;;;;;;11.10;7.88;;;;;;;15.42;100.00;101123.03;5231120;28;20496;-75
2022/09/07 00:39:04;;;;;;;11.57;8.48;;;;;;;15.44;100.00;101120.22;5225352;28;20436;-74
2022/09/07 00:41:36;;;;;;;12.90;9.05;;;;;;;15.43;100.00;101103.19;5231882;28;20041;-75
2022/09/07 00:44:55;;;;;;;14.20;9.85;;;;;;;15.48;100.00;101092.03;5229778;28;20053;-74
2022/09/07 00:47:41;;;;;;;12.40;9.15;;;;;;;15.47;100.00;101085.81;5239425;28;20569;-74
2022/09/07 00:50:18;;;;;;;12.05;8.77;;;;;;;15.37;100.00;101082.28;5233301;28;20031;-74
2022/09/07 00:52:56;;;;;;;14.25;9.18;;;;;;;15.44;100.00;101067.28;5231223;28;20075;-74
2022/09/07 00:55:29;;;;;;;12.40;9.00;;;;;;;15.38;100.00;101064.28;5227719;28;20531;-74
2022/09/07 00:58:02;;;;;;;13.65;9.23;;;;;;;15.38;100.00;101061.59;5222778;28;20025;-74
2022/09/07 01:00:34;;;;;;;12.90;8.57;;;;;;;15.29;100.00;101064.16;5228782;28;20052;-74
2022/09/07 01:03:07;;;;;;;15.18;9.13;;;;;;;15.32;100.00;101057.63;5234837;28;20033;-73
2022/09/07 01:05:45;;;;;;;10.50;7.95;;;;;;;15.34;100.00;101061.06;5237350;28;20154;-74
2022/09/07 01:08:16;;;;;;;13.25;8.55;;;;;;;15.27;100.00;101073.38;5232675;28;20116;-73
2022/09/07 01:10:47;;;;;;;12.10;8.82;;;;;;;15.31;100.00;101071.25;5218181;28;20034;-73
2022/09/07 01:13:19;;;;;;;9.38;7.65;;;;;;;15.23;100.00;101064.75;5233081;28;20036;-73
2022/09/07 01:16:09;;;;;;;10.88;8.32;;;;;;;15.33;100.00;101064.72;5229027;28;20061;-73
2022/09/07 01:18:51;;;;;;;14.07;8.30;;;;;;;15.36;100.00;101064.47;5252130;28;20033;-73
2022/09/07 01:21:46;;;;;;;13.02;8.20;;;;;;;15.32;100.00;101063.03;5216653;28;20083;-73
2022/09/07 01:24:39;;;;;;;12.13;8.32;;;;;;;15.40;100.00;101073.94;5223823;28;20068;-73
2022/09/07 01:27:31;;;;;;;10.75;8.50;;;;;;;15.34;100.00;101070.94;5226139;28;20467;-73
2022/09/07 01:30:11;;;;;;;10.80;8.02;;;;;;;15.41;100.00;101070.22;5221164;28;20528;-74
2022/09/07 01:33:13;;;;;;;11.00;8.25;;;;;;;15.34;100.00;101074.50;5227358;28;20040;-73
2022/09/07 01:36:12;;;;;;;10.10;7.78;;;;;;;15.34;100.00;101077.19;5231964;28;20037;-73
2022/09/07 01:38:52;;;;;;;10.73;7.80;;;;;;;15.32;100.00;101071.09;5225287;28;20036;-74
2022/09/07 01:41:44;;;;;;;11.07;7.40;;;;;;;15.33;100.00;101078.16;5226916;28;20026;-73
2022/09/07 01:44:23;;;;;;;11.80;7.85;;;;;;;15.34;100.00;101077.19;5226078;28;20045;-74
2022/09/07 01:47:04;;;;;;;13.48;8.20;;;;;;;15.41;100.00;101077.47;5223488;28;20061;-73
2022/09/07 01:49:40;;;;;;;10.25;7.65;;;;;;;15.29;100.00;101066.00;5222158;28;20140;-74
2022/09/07 01:52:39;;;;;;;10.40;8.15;;;;;;;15.46;100.00;101062.59;5224650;28;20033;-73
2022/09/07 01:55:41;;;;;;;12.38;8.13;;;;;;;15.47;100.00;101076.88;5214116;28;20112;-73
2022/09/07 01:58:22;;;;;;;13.82;8.75;;;;;;;15.38;100.00;101081.28;5229963;28;20029;-73
2022/09/07 02:01:00;;;;;;;13.07;9.40;;;;;;;15.35;100.00;101078.03;5224236;28;20041;-73
2022/09/07 02:03:39;;;;;;;11.80;8.85;;;;;;;15.32;100.00;101078.31;5235949;28;20032;-73
2022/09/07 02:06:19;;;;;;;13.35;9.43;;;;;;;15.41;100.00;101072.91;5224414;28;20044;-74
2022/09/07 02:09:03;;;;;;;12.27;8.98;;;;;;;15.32;100.00;101070.25;5226265;28;20074;-74
2022/09/07 02:11:41;;;;;;;14.90;9.67;;;;;;;15.40;100.00;101065.03;5223215;28;20044;-73
2022/09/07 02:14:19;;;;;;;11.90;9.30;;;;;;;15.39;100.00;101069.53;5228254;28;20036;-73
2022/09/07 02:17:27;;;;;;;10.68;8.35;;;;;;;15.40;100.00;101071.25;5228963;28;20421;-73
2022/09/07 02:20:07;;;;;;;16.27;10.30;;;;;;;15.26;100.00;101071.66;5233864;28;20505;-73
2022/09/07 02:22:44;;;;;;;15.95;10.63;;;;;;;15.21;100.00;101068.56;5223840;28;20045;-73
2022/09/07 02:25:20;;;;;;;16.13;11.10;;;;;;;15.22;100.00;101072.94;5232201;28;20038;-73
2022/09/07 02:28:03;;;;;;;13.60;10.05;;;;;;;15.22;100.00;101062.19;5227518;28;20037;-73
2022/09/07 02:30:34;;;;;;;13.07;8.77;;;;;;;15.22;100.00;101068.41;5229184;28;20048;-73
2022/09/07 02:33:06;;;;;;;11.18;8.70;;;;;;;15.15;100.00;101072.69;5228656;28;20034;-74
2022/09/07 02:35:37;;;;;;;10.45;8.00;;;;;;;15.25;100.00;101067.28;5236695;28;20036;-73
2022/09/07 02:38:09;;;;;;;13.25;8.25;;;;;;;15.19;100.00;101067.88;5230603;28;20162;-75
2022/09/07 02:40:40;;;;;;;11.02;8.98;;;;;;;15.15;100.00;101067.31;5228038;28;20040;-75
2022/09/07 02:43:12;;;;;;;11.63;9.68;;;;;;;15.09;100.00;101073.22;5229549;28;20438;-75
2022/09/07 02:45:59;;;;;;;13.50;10.65;;;;;;;15.15;100.00;101070.00;5224920;28;20021;-75
2022/09/07 02:48:48;;;;;;;14.05;9.55;;;;;;;15.16;100.00;101068.13;5229313;28;20034;-75
2022/09/07 02:51:36;;;;;;;11.98;8.85;;;;;;;15.06;100.00;101066.28;5221939;28;20037;-75
2022/09/07 02:54:19;;;;;;;11.82;9.52;;;;;;;15.05;100.00;101053.88;5218307;28;20372;-75
2022/09/07 02:57:29;;;;;;;11.20;8.82;;;;;;;15.13;100.00;101060.34;5218134;28;20033;-74
2022/09/07 03:00:07;;;;;;;11.52;9.23;;;;;;;15.01;100.00;101065.84;5220608;28;20040;-75
2022/09/07 03:02:58;;;;;;;12.63;9.02;;;;;;;15.10;100.00;101070.38;5220248;28;20041;-75
2022/09/07 03:05:41;;;;;;;12.45;9.30;;;;;;;15.03;100.00;101077.34;5221454;28;20768;-75
2022/09/07 03:08:18;;;;;;;13.85;10.27;;;;;;;15.05;100.00;101079.88;5222754;28;20044;-75
2022/09/07 03:10:51;;;;;;;11.95;9.88;;;;;;;15.15;100.00;101079.88;5218912;28;20091;-75
2022/09/07 03:13:26;;;;;;;13.80;11.02;;;;;;;15.08;100.00;101072.38;5220252;28;20074;-74
2022/09/07 03:15:57;;;;;;;14.85;11.20;;;;;;;15.18;100.00;101074.22;5218161;28;20033;-75
2022/09/07 03:18:29;;;;;;;14.40;11.75;;;;;;;15.12;100.00;101069.41;5220658;28;20029;-75
2022/09/07 03:21:00;;;;;;;15.95;11.65;;;;;;;15.10;100.00;101064.19;5219380;28;20037;-73
2022/09/07 03:23:32;;;;;;;15.27;11.80;;;;;;;15.11;100.00;101057.81;5224633;28;20133;-73
2022/09/07 03:26:03;;;;;;;14.82;10.82;;;;;;;15.26;100.00;101056.41;5216612;28;20066;-73
2022/09/07 03:28:35;;;;;;;15.35;11.27;;;;;;;15.17;100.00;101048.31;5217755;28;20041;-73
2022/09/07 03:31:06;;;;;;;17.08;11.07;;;;;;;15.19;100.00;101068.72;5219123;28;20069;-73
2022/09/07 03:33:37;;;;;;;17.02;11.23;;;;;;;15.20;100.00;101075.75;5220542;28;20107;-73
2022/09/07 03:36:08;;;;;;;14.68;11.02;;;;;;;15.22;100.00;101068.41;5219313;28;20030;-73
2022/09/07 03:38:40;;;;;;;13.52;11.05;;;;;;;15.18;100.00;101056.25;5220743;28;20055;-73
2022/09/07 03:41:11;;;;;;;14.30;11.50;;;;;;;15.29;100.00;101053.41;5226132;28;20369;-73
2022/09/07 03:43:42;;;;;;;15.38;10.95;;;;;;;15.25;100.00;101062.75;5223264;28;20045;-73
2022/09/07 03:46:18;;;;;;;15.55;11.68;;;;;;;15.27;100.00;101073.38;5223668;28;20440;-73
2022/09/07 03:48:49;;;;;;;16.10;11.63;;;;;;;15.21;100.00;101073.94;5230086;28;20091;-73
2022/09/07 03:51:20;;;;;;;16.90;12.00;;;;;;;15.16;100.00;101066.28;5225879;28;20034;-73
2022/09/07 03:53:53;;;;;;;15.52;11.15;;;;;;;15.14;100.00;101064.75;5223776;28;20046;-73
2022/09/07 03:56:25;;;;;;;14.40;11.27;;;;;;;15.14;100.00;101048.63;5229215;28;20696;-74
2022/09/07 03:58:56;;;;;;;16.13;12.20;;;;;;;15.12;100.00;101056.81;5219966;28;20504;-73
2022/09/07 04:01:28;;;;;;;14.65;11.55;;;;;;;15.11;100.00;101044.38;5228079;28;20030;-73
2022/09/07 04:04:01;;;;;;;16.90;12.65;;;;;;;15.15;100.00;101034.19;5223462;28;20120;-74
2022/09/07 04:06:32;;;;;;;14.93;12.27;;;;;;;15.14;100.00;101038.72;5229433;28;20021;-73
2022/09/07 04:09:09;;;;;;;16.45;12.43;;;;;;;15.19;100.00;101024.88;5222518;28;20208;-74
2022/09/07 04:11:41;;;;;;;16.35;12.18;;;;;;;15.15;100.00;101026.13;5222129;28;20375;-74
2022/09/07 04:14:12;;;;;;;13.50;11.40;;;;;;;15.17;100.00;101024.13;5231406;28;20032;-74
2022/09/07 04:16:44;;;;;;;14.75;12.55;;;;;;;15.15;100.00;101018.06;5237127;28;20041;-73
2022/09/07 04:19:16;;;;;;;14.80;12.10;;;;;;;15.16;100.00;101014.38;5227999;28;20037;-74
2022/09/07 04:21:47;;;;;;;14.98;11.65;;;;;;;15.10;100.00;101011.28;5225628;28;20037;-73
2022/09/07 04:24:18;;;;;;;14.40;11.65;;;;;;;15.12;100.00;101010.28;5231993;28;20048;-73
2022/09/07 04:26:50;;;;;;;15.43;11.88;;;;;;;15.10;100.00;101011.28;5233335;28;20501;-73
2022/09/07 04:29:21;;;;;;;17.20;12.38;;;;;;;15.08;100.00;101023.16;5230641;28;20383;-73
2022/09/07 04:31:52;;;;;;;16.65;12.32;;;;;;;15.09;100.00;101039.16;5229627;28;20030;-74
2022/09/07 04:34:24;;;;;;;15.60;12.45;;;;;;;15.03;100.00;101044.22;5233230;28;20609;-74
2022/09/07 04:36:55;;;;;;;16.90;12.35;;;;;;;15.00;100.00;101041.84;5229413;28;20424;-73
2022/09/07 04:39:26;;;;;;;17.95;13.00;;;;;;;15.05;100.00;101040.44;5230433;28;20036;-74
2022/09/07 04:41:57;;;;;;;19.08;14.18;;;;;;;15.01;100.00;101033.63;5231705;28;20025;-73
2022/09/07 04:44:29;;;;;;;18.45;13.35;;;;;;;14.99;100.00;101038.28;5229902;28;21691;-73
2022/09/07 04:47:00;;;;;;;16.48;12.60;;;;;;;14.94;100.00;101032.50;5232581;28;20065;-74
2022/09/07 04:49:31;;;;;;;19.35;13.73;;;;;;;14.97;100.00;101042.94;5233942;28;20391;-73
2022/09/07 04:52:02;;;;;;;16.00;13.05;;;;;;;14.98;100.00;101033.06;5229845;28;20837;-73
2022/09/07 04:54:34;;;;;;;16.45;13.13;;;;;;;15.02;100.00;101032.63;5218677;28;20104;-73
2022/09/07 04:57:05;;;;;;;18.65;14.13;;;;;;;15.05;100.00;101032.38;5227965;28;20042;-71
2022/09/07 04:59:36;;;;;;;16.80;13.10;;;;;;;15.03;100.00;101033.47;5230364;28;20033;-73
2022/09/07 05:02:07;;;;;;;17.67;14.65;;;;;;;15.18;100.00;101033.91;5230738;28;20526;-73
2022/09/07 05:04:39;;;;;;;19.70;14.30;;;;;;;15.12;100.00;101038.00;5240208;28;20033;-72
2022/09/07 05:07:10;;;;;;;17.52;14.07;;;;;;;15.12;100.00;101029.09;5231454;28;20033;-74
2022/09/07 05:09:42;;;;;;;20.13;14.30;;;;;;;15.17;100.00;101027.69;5228104;28;20029;-74
2022/09/07 05:12:13;;;;;;;19.73;14.98;;;;;;;15.15;100.00;101016.22;5229706;28;20497;-74
2022/09/07 05:14:44;;;;;;;19.38;14.20;;;;;;;15.21;100.00;101012.13;5237488;28;20036;-73
2022/09/07 05:17:15;;;;;;;20.17;15.20;;;;;;;15.16;100.00;101020.59;5218666;28;20050;-74
2022/09/07 05:19:47;;;;;;;22.55;15.77;;;;;;;15.13;100.00;101025.41;5226053;28;20032;-74
2022/09/07 05:22:18;;;;;;;19.88;15.18;;;;;;;15.10;100.00;101026.56;5226978;28;20088;-73
2022/09/07 05:24:49;;;;;;;19.08;15.48;;;;;;;15.12;100.00;101027.25;5228969;28;20550;-73
2022/09/07 05:27:21;;;;;;;20.77;14.88;;;;;;;15.06;100.00;101025.97;5239918;28;20576;-73
2022/09/07 05:29:52;;;;;;;19.83;15.30;;;;;;;15.09;100.00;101031.09;5230793;28;20356;-73
2022/09/07 05:32:24;;;;;;;20.50;15.88;;;;;;;15.16;100.00;101030.50;5234713;28;20541;-72
2022/09/07 05:34:55;;;;;;;21.27;15.68;;;;;;;15.23;100.00;101034.34;5227924;28;20029;-72
2022/09/07 05:37:26;;;;;;;22.98;17.95;;;;;;;15.17;100.00;101027.69;5235799;28;20026;-72
2022/09/07 05:39:58;;;;;;;24.02;17.17;;;;;;;15.18;100.00;101029.38;5230971;28;20049;-72
2022/09/07 05:42:29;;;;;;;24.38;17.52;;;;;;;15.28;100.00;101037.41;5224179;28;20049;-73
2022/09/07 05:45:01;;;;;;;26.52;18.35;;;;;;;15.22;100.00;101036.16;5241711;28;20108;-73
2022/09/07 05:47:32;;;;;;;27.77;19.10;;;;;;;15.41;100.00;101042.50;5235135;28;20037;-73
2022/09/07 05:50:08;;;;;;;26.55;19.17;;;;;;;15.35;100.00;101026.97;5232124;28;20537;-72
2022/09/07 05:52:39;;;;;;;24.65;18.60;;;;;;;15.38;100.00;101037.41;5232454;28;20045;-73
2022/09/07 05:55:10;;;;;;;24.58;17.17;;;;;;;15.37;100.00;101033.03;5223758;28;20021;-73
2022/09/07 05:57:41;;;;;;;24.73;18.92;;;;;;;15.39;100.00;101049.88;5232623;28;20248;-73
2022/09/07 06:00:13;;;;;;;24.58;17.83;;;;;;;15.39;100.00;101055.25;5220349;28;20064;-73
2022/09/07 06:02:44;;;;;;;23.58;18.35;;;;;;;15.40;100.00;101060.50;5213410;28;20033;-74
2022/09/07 06:05:16;;;;;;;24.70;19.33;;;;;;;15.49;100.00;101056.94;5206875;28;20121;-74
2022/09/07 06:07:47;;;;;;;25.92;19.58;;;;;;;15.45;100.00;101055.50;5213946;28;20093;-73
2022/09/07 06:10:19;;;;;;;24.52;19.15;;;;;;;15.45;100.00;101057.34;5214256;28;20037;-73
2022/09/07 06:12:50;;;;;;;26.38;19.50;;;;;;;15.53;100.00;101062.00;5215777;28;20029;-74
2022/09/07 06:15:21;;;;;;;31.85;21.92;;;;;;;15.50;100.00;101055.09;5229013;28;20142;-73
2022/09/07 06:17:53;;;;;;;28.52;21.42;;;;;;;15.48;100.00;101057.06;5227084;28;20033;-74
2022/09/07 06:20:24;;;;;;;30.33;21.23;;;;;;;15.48;100.00;101063.28;5218053;28;20034;-73
2022/09/07 06:22:55;;;;;;;30.67;21.80;;;;;;;15.51;100.00;101064.00;5216592;28;20045;-73
2022/09/07 06:25:27;;;;;;;32.47;22.83;;;;;;;15.51;100.00;101066.69;5215502;28;21198;-74
2022/09/07 06:27:58;;;;;;;34.53;24.38;;;;;;;15.51;100.00;101075.59;5217384;28;20026;-74
2022/09/07 06:30:29;;;;;;;35.92;25.15;;;;;;;15.52;100.00;101069.25;5227114;28;20029;-73
2022/09/07 06:33:01;;;;;;;36.60;26.00;;;;;;;15.56;100.00;101075.19;5227816;28;20038;-74
2022/09/07 06:35:32;;;;;;;41.05;28.20;;;;;;;15.75;100.00;101079.72;5226748;28;20033;-73
2022/09/07 06:38:03;;;;;;;44.70;29.27;;;;;;;15.77;100.00;101077.72;5230642;28;20025;-73
2022/09/07 06:40:34;;;;;;;46.38;29.20;;;;;;;15.67;100.00;101085.78;5224782;28;20124;-73
2022/09/07 06:43:06;;;;;;;46.88;30.63;;;;;;;15.64;100.00;101078.00;5229542;28;20053;-73
2022/09/07 06:45:37;;;;;;;48.25;30.70;;;;;;;15.65;100.00;101087.78;5229632;28;20398;-73
2022/09/07 06:48:08;;;;;;;48.55;30.17;;;;;;;15.67;100.00;101080.41;5230128;28;20485;-73
2022/09/07 06:50:40;;;;;;;47.65;31.70;;;;;;;15.68;100.00;101082.06;5229048;28;20501;-73
2022/09/07 06:53:11;;;;;;;51.92;34.05;;;;;;;15.69;100.00;101087.31;5226500;28;20498;-73
2022/09/07 06:55:45;;;;;;;56.35;34.45;;;;;;;15.76;100.00;101089.47;5227358;28;20029;-73
2022/09/07 06:58:17;;;;;;;56.47;34.50;;;;;;;15.78;100.00;101085.66;5225857;28;20079;-73
2022/09/07 07:00:48;;;;;;;55.00;35.90;;;;;;;15.81;100.00;101088.03;5227067;28;20033;-73
2022/09/07 07:03:20;;;;;;;56.42;36.35;;;;;;;15.90;100.00;101089.00;5226784;28;20029;-73
2022/09/07 07:05:54;;;;;;;65.40;38.92;;;;;;;15.97;100.00;101089.25;5233428;28;20135;-73
2022/09/07 07:08:25;;;;;;;65.93;40.15;;;;;;;16.00;100.00;101083.59;5220423;28;20440;-73
2022/09/07 07:11:01;;;;;;;67.60;41.92;;;;;;;16.07;100.00;101092.78;5222883;28;20036;-73
2022/09/07 07:13:34;;;;;;;70.55;43.50;;;;;;;16.13;100.00;101080.53;5220136;28;20029;-73
2022/09/07 07:16:06;;;;;;;70.18;42.10;;;;;;;16.16;100.00;101091.88;5217506;28;20021;-73
2022/09/07 07:18:39;;;;;;;68.35;42.20;;;;;;;16.24;100.00;101086.63;5218867;28;20475;-73
2022/09/07 07:21:12;;;;;;;75.53;45.97;;;;;;;16.45;100.00;101091.75;5216147;28;20112;-73
2022/09/07 07:23:48;;;;;;;77.68;45.97;;;;;;;16.50;100.00;101090.47;5220285;28;20250;-73
2022/09/07 07:26:25;;;;;;;79.28;47.97;;;;;;;16.54;100.00;101086.47;5220442;28;20486;-73
2022/09/07 07:28:56;;;;;;;75.82;45.65;;;;;;;16.63;100.00;101101.72;5223204;28;20119;-74
2022/09/07 07:31:29;;;;;;;70.30;44.85;;;;;;;16.59;100.00;101097.66;5216513;28;20029;-74
2022/09/07 07:34:03;;;;;;;67.40;42.97;;;;;;;16.65;100.00;101097.03;5218212;28;20028;-73
2022/09/07 07:36:34;;;;;;;64.32;43.40;;;;;;;16.66;100.00;101101.41;5216675;28;20333;-73
2022/09/07 07:39:05;;;;;;;68.47;45.22;;;;;;;16.75;100.00;101102.38;5224134;28;20041;-73
2022/09/07 07:41:37;;;;;;;66.03;44.50;;;;;;;16.70;100.00;101104.66;5221168;28;20033;-73
2022/09/07 07:44:08;;;;;;;69.45;47.55;;;;;;;16.81;100.00;101102.59;5219743;28;20060;-73
2022/09/07 07:46:39;;;;;;;61.35;42.17;;;;;;;16.87;100.00;101101.16;5223290;28;20112;-72
2022/09/07 07:49:11;;;;;;;59.92;41.88;;;;;;;16.89;100.00;101111.81;5226439;28;20162;-72
2022/09/07 07:51:42;;;;;;;54.28;39.92;;;;;;;16.80;100.00;101114.38;5229390;28;20475;-72
2022/09/07 07:54:13;;;;;;;49.75;37.88;;;;;;;16.87;100.00;101117.34;5227205;28;20219;-72
2022/09/07 07:56:44;;;;;;;54.28;38.92;;;;;;;16.92;100.00;101112.34;5216418;28;20021;-72
2022/09/07 07:59:16;;;;;;;47.63;37.17;;;;;;;16.82;100.00;101111.56;5228673;28;20048;-72
2022/09/07 08:01:47;;;;;;;49.38;36.85;;;;;;;16.89;100.00;101119.88;5223154;28;20037;-72
2022/09/07 08:04:18;;;;;;;49.28;36.60;;;;;;;16.91;100.00;101123.28;5228666;28;20021;-72
2022/09/07 08:06:49;;;;;;;48.03;36.45;;;;;;;16.93;100.00;101119.44;5221210;28;20033;-72
2022/09/07 08:09:21;;;;;;;45.47;34.47;;;;;;;16.99;100.00;101113.44;5226972;28;20028;-72
2022/09/07 08:11:52;;;;;;;47.03;36.38;;;;;;;17.05;100.00;101123.59;5222706;28;20033;-72
2022/09/07 08:14:23;;;;;;;42.83;33.63;;;;;;;17.10;100.00;101127.69;5230691;28;20030;-72
2022/09/07 08:16:55;;;;;;;40.25;32.58;;;;;;;17.16;100.00;101127.94;5225865;28;20026;-73
2022/09/07 08:19:26;;;;;;;41.85;32.13;;;;;;;17.24;100.00;101125.31;5228479;28;20029;-72
2022/09/07 08:21:58;;;;;;;40.00;32.25;;;;;;;17.29;100.00;101130.22;5228044;28;20084;-72
2022/09/07 08:24:32;;;;;;;39.53;31.85;;;;;;;17.32;100.00;101126.41;5221542;28;20426;-72
2022/09/07 08:27:03;;;;;;;37.60;30.55;;;;;;;17.36;100.00;101128.63;5229202;28;20064;-72
2022/09/07 08:29:35;;;;;;;37.72;30.48;;;;;;;17.47;100.00;101129.38;5221820;28;20570;-72
2022/09/07 08:32:06;;;;;;;39.38;30.92;;;;;;;17.50;100.00;101138.00;5225657;28;20061;-72
2022/09/07 08:34:38;;;;;;;36.35;29.52;;;;;;;17.52;100.00;101135.16;5229420;28;20127;-72
2022/09/07 08:37:09;;;;;;;35.00;28.25;;;;;;;17.54;100.00;101135.84;5227284;28;20051;-72
2022/09/07 08:39:41;;;;;;;38.47;28.15;;;;;;;17.55;100.00;101137.56;5220254;28;20510;-72
2022/09/07 08:42:36;;;;;;;31.90;27.63;;;;;;;17.63;100.00;101141.16;5227337;28;20056;-72
2022/09/07 08:45:19;;;;;;;32.10;26.10;;;;;;;17.68;100.00;101143.41;5231011;28;20039;-72
2022/09/07 08:47:51;;;;;;;28.45;24.88;;;;;;;17.74;100.00;101150.03;5226428;28;20025;-73
2022/09/07 08:50:28;;;;;;;30.30;25.23;;;;;;;17.79;100.00;101144.97;5231435;28;20036;-72
2022/09/07 08:53:12;;;;;;;29.27;24.40;;;;;;;17.86;100.00;101139.84;5230702;28;20033;-72
2022/09/07 08:56:03;;;;;;;27.85;22.23;;;;;;;17.95;100.00;101142.44;5232973;28;20423;-72
2022/09/07 08:58:47;;;;;;;26.13;22.50;;;;;;;17.97;100.00;101145.84;5227555;28;20033;-72
2022/09/07 09:01:35;;;;;;;28.25;23.27;;;;;;;18.01;100.00;101141.81;5225040;28;20115;-72
2022/09/07 09:04:27;;;;;;;25.35;18.90;;;;;;;18.15;100.00;101143.06;5230088;28;20117;-72
2022/09/07 09:07:01;;;;;;;23.70;19.38;;;;;;;18.14;100.00;101135.97;5229912;28;20041;-72
2022/09/07 09:09:42;;;;;;;;;;;;;;;18.25;100.00;101142.09;5229733;28;20025;-72
2022/09/07 09:12:54;;;;;;;19.70;17.42;;;;;;;18.34;100.00;101146.56;5229415;28;20370;-72
2022/09/07 09:15:46;;;;;;;21.58;17.38;;;;;;;18.47;100.00;101144.25;5226969;28;20045;-72
2022/09/07 09:18:53;;;;;;;20.75;17.00;;;;;;;18.52;100.00;101143.75;5230460;28;20033;-72
2022/09/07 09:21:25;;;;;;;18.83;14.70;;;;;;;18.54;100.00;101148.00;5252553;28;20163;-70
2022/09/07 09:24:01;;;;;;;16.77;12.60;;;;;;;18.65;100.00;101143.31;5224025;28;20048;-71
2022/09/07 09:26:32;;;;;;;14.32;11.63;;;;;;;18.65;100.00;101143.31;5227727;28;20447;-71
2022/09/07 09:29:24;;;;;;;14.75;11.20;;;;;;;18.78;100.00;101149.09;5227086;28;20384;-71
2022/09/07 09:31:55;;;;;;;15.52;10.82;;;;;;;18.66;100.00;101147.69;5229129;28;20037;-71
2022/09/07 09:34:27;;;;;;;13.30;10.20;;;;;;;18.60;100.00;101144.66;5231043;28;20482;-71
2022/09/07 09:36:58;;;;;;;13.20;9.75;;;;;;;18.56;100.00;101146.00;5230443;28;20029;-72
2022/09/07 09:39:35;;;;;;;14.40;10.23;;;;;;;18.55;100.00;101146.16;5227245;28;20032;-72
2022/09/07 09:42:14;;;;;;;12.38;9.70;;;;;;;18.51;100.00;101151.03;5232292;28;20033;-71
2022/09/07 09:44:46;;;;;;;12.60;8.90;;;;;;;18.44;100.00;101144.56;5227656;28;20029;-71
2022/09/07 09:47:26;;;;;;;11.30;8.43;;;;;;;18.51;100.00;101147.47;5230664;28;20502;-71
2022/09/07 09:50:02;;;;;;;11.25;7.22;;;;;;;18.57;100.00;101150.38;5228864;28;20029;-71
2022/09/07 09:52:35;;;;;;;11.57;5.80;;;;;;;18.73;100.00;101144.16;5227783;28;20056;-71
2022/09/07 09:55:22;;;;;;;13.10;5.15;;;;;;;18.82;100.00;101144.25;5226740;28;20034;-71
2022/09/07 09:58:26;;;;;;;9.07;4.95;;;;;;;18.95;100.00;101145.47;5225505;28;20325;-71
2022/09/07 10:01:03;;;;;;;11.05;5.90;;;;;;;18.96;100.00;101147.16;5229802;28;20454;-71
2022/09/07 10:03:34;;;;;;;11.40;4.88;;;;;;;19.16;100.00;101136.91;5226903;28;20115;-69
2022/09/07 10:06:14;;;;;;;9.13;4.35;;;;;;;19.22;100.00;101140.78;5228384;28;20041;-70
2022/09/07 10:08:56;;;;;;;10.30;4.18;;;;;;;19.38;100.00;101142.66;5227144;28;20033;-71
2022/09/07 10:11:49;;;;;;;10.77;3.80;;;;;;;19.39;100.00;101137.09;5225444;28;20742;-71
2022/09/07 10:14:42;;;;;;;10.88;3.60;;;;;;;19.51;100.00;101139.47;5229149;28;20034;-71
2022/09/07 10:17:35;;;;;;;7.45;3.15;;;;;;;19.55;100.00;101135.41;5228980;28;20112;-70
2022/09/07 10:20:16;;;;;;;7.68;3.10;;;;;;;19.59;100.00;101124.06;5223261;28;20052;-70
2022/09/07 10:22:50;;;;;;;6.03;2.92;;;;;;;19.49;100.00;101128.81;5224295;28;20474;-71
2022/09/07 10:25:33;;;;;;;;;;;;;;;19.59;100.00;101120.50;5224765;28;20799;-70
2022/09/07 10:28:11;;;;;;;8.13;3.00;;;;;;;19.51;100.00;101126.78;5231591;28;19975;-70
2022/09/07 10:30:59;;;;;;;7.18;2.58;;;;;;;19.73;100.00;101117.16;5229930;28;20168;-72
2022/09/07 10:33:57;;;;;;;8.35;2.85;;;;;;;19.86;100.00;101121.19;5223691;28;20037;-70
2022/09/07 10:36:53;;;;;;;6.18;2.45;;;;;;;19.88;100.00;101125.41;5224085;28;20029;-70
2022/09/07 10:39:30;;;;;;;9.43;3.10;;;;;;;19.84;100.00;101128.66;5229888;28;20430;-70
2022/09/07 10:42:14;;;;;;;6.43;2.38;;;;;;;19.93;100.00;101114.91;5232801;28;20099;-70
2022/09/07 10:44:59;;;;;;;6.22;2.50;;;;;;;20.04;100.00;101119.13;5230691;28;20036;-69
2022/09/07 10:47:45;;;;;;;7.57;2.58;;;;;;;20.17;100.00;101113.16;5230977;28;20056;-69
2022/09/07 10:50:49;;;;;;;8.88;2.85;;;;;;;20.21;100.00;101116.38;5228136;28;20399;-70
2022/09/07 10:53:46;;;;;;;7.47;2.55;;;;;;;20.22;100.00;101115.38;5227895;28;20617;-69
2022/09/07 10:56:29;;;;;;;9.23;3.55;;;;;;;20.19;100.00;101113.81;5230936;28;20562;-69
2022/09/07 10:59:31;;;;;;;7.28;2.45;;;;;;;20.17;100.00;101111.31;5229865;28;20033;-69
2022/09/07 11:02:36;;;;;;;9.38;2.33;;;;;;;20.26;100.00;101105.88;5229296;28;20566;-69
2022/09/07 11:05:30;;;;;;;9.05;2.40;;;;;;;20.37;100.00;101105.50;5230671;28;20034;-69
2022/09/07 11:08:13;;;;;;;9.95;2.47;;;;;;;20.42;100.00;101107.66;5234943;28;20029;-69
2022/09/07 11:11:16;;;;;;;5.50;2.40;;;;;;;20.60;100.00;101107.47;5233736;28;20029;-70
2022/09/07 11:13:51;;;;;;;6.85;2.53;;;;;;;20.60;100.00;101112.88;5236053;28;20025;-68
2022/09/07 11:16:26;;;;;;;7.82;2.80;;;;;;;20.62;100.00;101102.72;5228897;28;20483;-68
2022/09/07 11:19:03;;;;;;;5.30;2.40;;;;;;;20.50;100.00;101096.78;5224854;28;20038;-69
2022/09/07 11:21:40;;;;;;;8.20;2.67;;;;;;;20.50;100.00;101096.78;5226361;28;20040;-69
2022/09/07 11:24:18;;;;;;;9.25;3.00;;;;;;;20.53;100.00;101088.31;5227416;28;20029;-69
2022/09/07 11:26:54;;;;;;;6.75;2.40;;;;;;;20.47;100.00;101097.16;5234347;28;20037;-69
2022/09/07 11:29:37;;;;;;;8.25;3.03;;;;;;;20.46;100.00;101092.72;5229190;28;20063;-69
2022/09/07 11:32:20;;;;;;;7.80;2.80;;;;;;;20.57;100.00;101098.59;5229352;28;20041;-69
2022/09/07 11:34:55;;;;;;;7.95;2.50;;;;;;;20.49;100.00;101095.09;5235049;28;20096;-69
2022/09/07 11:37:45;;;;;;;7.68;2.25;;;;;;;20.67;100.00;101093.03;5232442;28;20684;-69
2022/09/07 11:40:28;;;;;;;7.13;2.38;;;;;;;20.63;100.00;101090.81;5235132;28;20044;-69
2022/09/07 11:43:16;;;;;;;6.65;2.20;;;;;;;20.59;100.00;101094.88;5226588;28;20080;-69
2022/09/07 11:45:53;;;;;;;5.18;2.13;;;;;;;20.53;100.00;101091.00;5226130;28;20154;-69
2022/09/07 11:48:38;;;;;;;4.68;2.10;;;;;;;20.66;100.00;101096.75;5234441;28;20491;-69
2022/09/07 11:51:19;;;;;;;7.97;2.60;;;;;;;20.71;100.00;101088.06;5227219;28;20550;-69